sensor_id;sensor_type;location;lat;lon;timestamp;P1;durP1;ratioP1;P2;durP2;ratioP2
10535;SDS011;5316;49.538;8.352;2023-05-29T00:01:39;3.72;;;2.13;;
10535;SDS011;5316;49.538;8.352;2023-05-29T00:04:25;2.72;;;2.03;;
10535;SDS011;5316;49.538;8.352;2023-05-29T00:06:55;3.53;;;2.30;;
10535;SDS011;5316;49.538;8.352;2023-05-29T00:09:29;3.47;;;2.03;;
10535;SDS011;5316;49.538;8.352;2023-05-29T00:12:06;3.35;;;2.08;;
10535;SDS011;5316;49.538;8.352;2023-05-29T00:14:37;2.80;;;2.13;;
10535;SDS011;5316;49.538;8.352;2023-05-29T00:17:08;3.87;;;2.03;;
10535;SDS011;5316;49.538;8.352;2023-05-29T00:19:45;3.00;;;2.17;;
10535;SDS011;5316;49.538;8.352;2023-05-29T00:22:12;6.93;;;2.03;;
10535;SDS011;5316;49.538;8.352;2023-05-29T00:24:44;4.75;;;2.17;;
10535;SDS011;5316;49.538;8.352;2023-05-29T00:27:20;2.63;;;2.33;;
10535;SDS011;5316;49.538;8.352;2023-05-29T00:29:50;6.63;;;2.60;;
10535;SDS011;5316;49.538;8.352;2023-05-29T00:32:19;4.10;;;2.60;;
10535;SDS011;5316;49.538;8.352;2023-05-29T00:34:46;3.27;;;2.40;;
10535;SDS011;5316;49.538;8.352;2023-05-29T00:37:13;3.00;;;2.60;;
10535;SDS011;5316;49.538;8.352;2023-05-29T00:39:45;4.20;;;2.73;;
10535;SDS011;5316;49.538;8.352;2023-05-29T00:42:15;2.80;;;2.10;;
10535;SDS011;5316;49.538;8.352;2023-05-29T00:44:43;4.33;;;2.80;;
10535;SDS011;5316;49.538;8.352;2023-05-29T00:47:13;3.30;;;2.60;;
10535;SDS011;5316;49.538;8.352;2023-05-29T00:49:42;5.57;;;2.93;;
10535;SDS011;5316;49.538;8.352;2023-05-29T00:52:13;3.07;;;2.70;;
10535;SDS011;5316;49.538;8.352;2023-05-29T00:54:45;4.73;;;2.73;;
10535;SDS011;5316;49.538;8.352;2023-05-29T00:57:13;5.20;;;2.60;;
10535;SDS011;5316;49.538;8.352;2023-05-29T00:59:42;5.37;;;2.70;;
10535;SDS011;5316;49.538;8.352;2023-05-29T01:02:16;5.43;;;2.80;;
10535;SDS011;5316;49.538;8.352;2023-05-29T01:04:47;4.20;;;2.33;;
10535;SDS011;5316;49.538;8.352;2023-05-29T01:07:20;4.87;;;2.20;;
10535;SDS011;5316;49.538;8.352;2023-05-29T01:09:52;6.23;;;2.53;;
10535;SDS011;5316;49.538;8.352;2023-05-29T01:12:26;4.90;;;2.50;;
10535;SDS011;5316;49.538;8.352;2023-05-29T01:15:14;3.50;;;2.80;;
10535;SDS011;5316;49.538;8.352;2023-05-29T01:18:15;2.67;;;2.30;;
10535;SDS011;5316;49.538;8.352;2023-05-29T01:20:57;4.33;;;2.50;;
10535;SDS011;5316;49.538;8.352;2023-05-29T01:23:44;4.03;;;2.43;;
10535;SDS011;5316;49.538;8.352;2023-05-29T01:26:23;6.63;;;2.93;;
10535;SDS011;5316;49.538;8.352;2023-05-29T01:29:12;3.23;;;2.60;;
10535;SDS011;5316;49.538;8.352;2023-05-29T01:31:41;4.57;;;2.70;;
10535;SDS011;5316;49.538;8.352;2023-05-29T01:34:18;3.90;;;2.67;;
10535;SDS011;5316;49.538;8.352;2023-05-29T01:36:47;2.90;;;2.47;;
10535;SDS011;5316;49.538;8.352;2023-05-29T01:39:16;2.57;;;2.13;;
10535;SDS011;5316;49.538;8.352;2023-05-29T01:41:49;5.10;;;2.47;;
10535;SDS011;5316;49.538;8.352;2023-05-29T01:44:18;6.27;;;2.87;;
10535;SDS011;5316;49.538;8.352;2023-05-29T01:46:47;4.20;;;2.50;;
10535;SDS011;5316;49.538;8.352;2023-05-29T01:49:15;5.43;;;2.50;;
10535;SDS011;5316;49.538;8.352;2023-05-29T01:51:45;5.13;;;2.63;;
10535;SDS011;5316;49.538;8.352;2023-05-29T01:54:12;5.23;;;2.70;;
10535;SDS011;5316;49.538;8.352;2023-05-29T01:56:41;4.77;;;2.50;;
10535;SDS011;5316;49.538;8.352;2023-05-29T01:59:11;4.10;;;3.03;;
10535;SDS011;5316;49.538;8.352;2023-05-29T02:01:39;2.90;;;2.30;;
10535;SDS011;5316;49.538;8.352;2023-05-29T02:04:06;4.23;;;2.50;;
10535;SDS011;5316;49.538;8.352;2023-05-29T02:06:33;4.90;;;2.53;;
10535;SDS011;5316;49.538;8.352;2023-05-29T02:09:06;4.43;;;2.57;;
10535;SDS011;5316;49.538;8.352;2023-05-29T02:11:37;4.10;;;2.50;;
10535;SDS011;5316;49.538;8.352;2023-05-29T02:14:11;6.70;;;3.00;;
10535;SDS011;5316;49.538;8.352;2023-05-29T02:16:39;4.37;;;3.03;;
10535;SDS011;5316;49.538;8.352;2023-05-29T02:19:09;4.93;;;2.57;;
10535;SDS011;5316;49.538;8.352;2023-05-29T02:21:37;3.70;;;2.47;;
10535;SDS011;5316;49.538;8.352;2023-05-29T02:24:05;4.73;;;2.70;;
10535;SDS011;5316;49.538;8.352;2023-05-29T02:26:33;2.77;;;2.53;;
10535;SDS011;5316;49.538;8.352;2023-05-29T02:29:01;4.10;;;2.70;;
10535;SDS011;5316;49.538;8.352;2023-05-29T02:31:32;4.40;;;2.67;;
10535;SDS011;5316;49.538;8.352;2023-05-29T02:33:59;2.90;;;2.63;;
10535;SDS011;5316;49.538;8.352;2023-05-29T02:36:28;5.27;;;2.83;;
10535;SDS011;5316;49.538;8.352;2023-05-29T02:38:57;6.77;;;2.93;;
10535;SDS011;5316;49.538;8.352;2023-05-29T02:41:24;7.73;;;2.60;;
10535;SDS011;5316;49.538;8.352;2023-05-29T02:43:56;3.97;;;2.73;;
10535;SDS011;5316;49.538;8.352;2023-05-29T02:46:24;4.13;;;2.53;;
10535;SDS011;5316;49.538;8.352;2023-05-29T02:48:55;4.37;;;2.53;;
10535;SDS011;5316;49.538;8.352;2023-05-29T02:51:25;5.90;;;2.60;;
10535;SDS011;5316;49.538;8.352;2023-05-29T02:53:55;5.43;;;2.80;;
10535;SDS011;5316;49.538;8.352;2023-05-29T02:56:25;3.93;;;2.73;;
10535;SDS011;5316;49.538;8.352;2023-05-29T02:58:55;4.27;;;2.60;;
10535;SDS011;5316;49.538;8.352;2023-05-29T03:01:25;5.33;;;2.97;;
10535;SDS011;5316;49.538;8.352;2023-05-29T03:04:03;4.90;;;2.70;;
10535;SDS011;5316;49.538;8.352;2023-05-29T03:06:31;3.73;;;2.63;;
10535;SDS011;5316;49.538;8.352;2023-05-29T03:08:58;3.53;;;2.83;;
10535;SDS011;5316;49.538;8.352;2023-05-29T03:11:25;4.27;;;3.10;;
10535;SDS011;5316;49.538;8.352;2023-05-29T03:13:53;3.97;;;2.60;;
10535;SDS011;5316;49.538;8.352;2023-05-29T03:16:20;5.03;;;2.60;;
10535;SDS011;5316;49.538;8.352;2023-05-29T03:18:47;4.40;;;2.50;;
10535;SDS011;5316;49.538;8.352;2023-05-29T03:21:18;5.43;;;3.20;;
10535;SDS011;5316;49.538;8.352;2023-05-29T03:23:46;3.17;;;2.50;;
10535;SDS011;5316;49.538;8.352;2023-05-29T03:26:14;3.27;;;2.90;;
10535;SDS011;5316;49.538;8.352;2023-05-29T03:28:41;3.17;;;2.30;;
10535;SDS011;5316;49.538;8.352;2023-05-29T03:31:08;4.20;;;2.60;;
10535;SDS011;5316;49.538;8.352;2023-05-29T03:33:35;4.70;;;3.23;;
10535;SDS011;5316;49.538;8.352;2023-05-29T03:36:02;3.67;;;2.73;;
10535;SDS011;5316;49.538;8.352;2023-05-29T03:38:31;6.47;;;2.60;;
10535;SDS011;5316;49.538;8.352;2023-05-29T03:40:57;3.17;;;2.80;;
10535;SDS011;5316;49.538;8.352;2023-05-29T03:43:27;3.20;;;2.60;;
10535;SDS011;5316;49.538;8.352;2023-05-29T03:45:54;3.87;;;2.57;;
10535;SDS011;5316;49.538;8.352;2023-05-29T03:48:21;6.43;;;2.87;;
10535;SDS011;5316;49.538;8.352;2023-05-29T03:50:53;5.57;;;2.90;;
10535;SDS011;5316;49.538;8.352;2023-05-29T03:53:20;4.33;;;2.90;;
10535;SDS011;5316;49.538;8.352;2023-05-29T03:55:48;4.10;;;3.07;;
10535;SDS011;5316;49.538;8.352;2023-05-29T03:58:15;4.70;;;2.83;;
10535;SDS011;5316;49.538;8.352;2023-05-29T04:00:42;2.97;;;2.67;;
10535;SDS011;5316;49.538;8.352;2023-05-29T04:03:14;5.27;;;3.00;;
10535;SDS011;5316;49.538;8.352;2023-05-29T04:05:42;5.60;;;3.10;;
10535;SDS011;5316;49.538;8.352;2023-05-29T04:08:16;4.20;;;2.77;;
10535;SDS011;5316;49.538;8.352;2023-05-29T04:10:43;3.80;;;3.00;;
10535;SDS011;5316;49.538;8.352;2023-05-29T04:13:11;5.40;;;2.83;;
10535;SDS011;5316;49.538;8.352;2023-05-29T04:15:41;4.37;;;2.60;;
10535;SDS011;5316;49.538;8.352;2023-05-29T04:18:11;6.87;;;2.80;;
10535;SDS011;5316;49.538;8.352;2023-05-29T04:20:39;4.77;;;2.77;;
10535;SDS011;5316;49.538;8.352;2023-05-29T04:23:06;4.00;;;2.50;;
10535;SDS011;5316;49.538;8.352;2023-05-29T04:25:35;5.03;;;3.40;;
10535;SDS011;5316;49.538;8.352;2023-05-29T04:28:02;6.00;;;3.30;;
10535;SDS011;5316;49.538;8.352;2023-05-29T04:30:31;4.43;;;2.93;;
10535;SDS011;5316;49.538;8.352;2023-05-29T04:32:59;4.10;;;3.10;;
10535;SDS011;5316;49.538;8.352;2023-05-29T04:35:26;3.40;;;2.63;;
10535;SDS011;5316;49.538;8.352;2023-05-29T04:38:05;6.43;;;3.23;;
10535;SDS011;5316;49.538;8.352;2023-05-29T04:50:51;3.93;;;2.70;;
10535;SDS011;5316;49.538;8.352;2023-05-29T04:57:26;7.13;;;2.37;;
10535;SDS011;5316;49.538;8.352;2023-05-29T05:00:33;4.83;;;3.30;;
10535;SDS011;5316;49.538;8.352;2023-05-29T05:03:32;5.53;;;2.97;;
10535;SDS011;5316;49.538;8.352;2023-05-29T05:06:26;3.80;;;2.33;;
10535;SDS011;5316;49.538;8.352;2023-05-29T05:09:22;4.03;;;2.83;;
10535;SDS011;5316;49.538;8.352;2023-05-29T05:12:05;5.77;;;3.43;;
10535;SDS011;5316;49.538;8.352;2023-05-29T05:17:58;4.17;;;2.70;;
10535;SDS011;5316;49.538;8.352;2023-05-29T05:21:20;3.17;;;2.60;;
10535;SDS011;5316;49.538;8.352;2023-05-29T05:24:40;3.67;;;2.40;;
10535;SDS011;5316;49.538;8.352;2023-05-29T05:28:16;6.53;;;2.40;;
10535;SDS011;5316;49.538;8.352;2023-05-29T05:31:10;5.80;;;2.70;;
10535;SDS011;5316;49.538;8.352;2023-05-29T05:34:11;2.90;;;2.33;;
10535;SDS011;5316;49.538;8.352;2023-05-29T05:37:04;7.73;;;5.03;;
10535;SDS011;5316;49.538;8.352;2023-05-29T05:40:14;4.70;;;3.00;;
10535;SDS011;5316;49.538;8.352;2023-05-29T05:43:35;4.07;;;2.50;;
10535;SDS011;5316;49.538;8.352;2023-05-29T05:46:33;2.47;;;2.20;;
10535;SDS011;5316;49.538;8.352;2023-05-29T05:49:26;4.33;;;2.60;;
10535;SDS011;5316;49.538;8.352;2023-05-29T05:52:30;2.90;;;2.10;;
10535;SDS011;5316;49.538;8.352;2023-05-29T05:58:41;2.23;;;2.03;;
10535;SDS011;5316;49.538;8.352;2023-05-29T06:02:04;3.10;;;2.70;;
10535;SDS011;5316;49.538;8.352;2023-05-29T06:05:19;3.00;;;2.53;;
10535;SDS011;5316;49.538;8.352;2023-05-29T06:08:32;7.00;;;3.20;;
10535;SDS011;5316;49.538;8.352;2023-05-29T06:43:53;3.03;;;2.37;;
10535;SDS011;5316;49.538;8.352;2023-05-29T06:46:49;4.17;;;2.50;;
10535;SDS011;5316;49.538;8.352;2023-05-29T06:49:47;3.73;;;2.63;;
10535;SDS011;5316;49.538;8.352;2023-05-29T06:52:37;2.73;;;2.47;;
10535;SDS011;5316;49.538;8.352;2023-05-29T06:58:35;4.57;;;2.70;;
10535;SDS011;5316;49.538;8.352;2023-05-29T07:01:22;4.70;;;2.77;;
10535;SDS011;5316;49.538;8.352;2023-05-29T07:04:43;3.77;;;2.70;;
10535;SDS011;5316;49.538;8.352;2023-05-29T07:11:01;6.13;;;2.87;;
10535;SDS011;5316;49.538;8.352;2023-05-29T07:14:15;5.67;;;3.80;;
10535;SDS011;5316;49.538;8.352;2023-05-29T07:17:29;4.33;;;2.83;;
10535;SDS011;5316;49.538;8.352;2023-05-29T07:20:29;4.07;;;2.90;;
10535;SDS011;5316;49.538;8.352;2023-05-29T07:33:25;3.80;;;2.40;;
10535;SDS011;5316;49.538;8.352;2023-05-29T07:36:28;4.10;;;2.50;;
10535;SDS011;5316;49.538;8.352;2023-05-29T07:39:30;3.90;;;2.53;;
10535;SDS011;5316;49.538;8.352;2023-05-29T07:56:06;6.90;;;2.40;;
10535;SDS011;5316;49.538;8.352;2023-05-29T08:06:21;3.13;;;2.45;;
10535;SDS011;5316;49.538;8.352;2023-05-29T08:09:54;3.13;;;2.50;;
10535;SDS011;5316;49.538;8.352;2023-05-29T08:18:32;5.18;;;2.30;;
10535;SDS011;5316;49.538;8.352;2023-05-29T08:43:21;2.15;;;1.95;;
10535;SDS011;5316;49.538;8.352;2023-05-29T09:39:48;2.45;;;2.25;;
10535;SDS011;5316;49.538;8.352;2023-05-29T09:42:16;2.15;;;1.80;;
10535;SDS011;5316;49.538;8.352;2023-05-29T09:44:44;3.30;;;1.90;;
10535;SDS011;5316;49.538;8.352;2023-05-29T09:47:13;2.40;;;2.17;;
10535;SDS011;5316;49.538;8.352;2023-05-29T09:49:42;3.33;;;1.98;;
10535;SDS011;5316;49.538;8.352;2023-05-29T09:52:10;3.35;;;1.70;;
10535;SDS011;5316;49.538;8.352;2023-05-29T09:54:40;5.05;;;2.10;;
10535;SDS011;5316;49.538;8.352;2023-05-29T09:57:11;2.45;;;1.85;;
10535;SDS011;5316;49.538;8.352;2023-05-29T09:59:39;3.63;;;2.00;;
10535;SDS011;5316;49.538;8.352;2023-05-29T10:02:10;3.25;;;1.75;;
10535;SDS011;5316;49.538;8.352;2023-05-29T10:04:39;2.50;;;2.15;;
10535;SDS011;5316;49.538;8.352;2023-05-29T10:07:08;2.30;;;2.10;;
10535;SDS011;5316;49.538;8.352;2023-05-29T10:09:38;2.72;;;1.75;;
10535;SDS011;5316;49.538;8.352;2023-05-29T10:12:08;2.55;;;2.13;;
10535;SDS011;5316;49.538;8.352;2023-05-29T10:14:39;4.68;;;2.17;;
10535;SDS011;5316;49.538;8.352;2023-05-29T10:17:10;4.85;;;2.30;;
10535;SDS011;5316;49.538;8.352;2023-05-29T10:19:40;2.65;;;1.92;;
10535;SDS011;5316;49.538;8.352;2023-05-29T10:22:08;3.45;;;2.20;;
10535;SDS011;5316;49.538;8.352;2023-05-29T10:24:36;3.72;;;2.17;;
10535;SDS011;5316;49.538;8.352;2023-05-29T10:27:04;4.65;;;2.40;;
10535;SDS011;5316;49.538;8.352;2023-05-29T10:29:34;2.40;;;2.20;;
10535;SDS011;5316;49.538;8.352;2023-05-29T10:32:07;2.40;;;2.15;;
10535;SDS011;5316;49.538;8.352;2023-05-29T10:34:46;4.78;;;2.03;;
10535;SDS011;5316;49.538;8.352;2023-05-29T10:37:25;2.20;;;2.00;;
10535;SDS011;5316;49.538;8.352;2023-05-29T10:40:05;2.58;;;2.10;;
10535;SDS011;5316;49.538;8.352;2023-05-29T10:42:40;3.80;;;2.35;;
10535;SDS011;5316;49.538;8.352;2023-05-29T10:45:09;3.58;;;2.45;;
10535;SDS011;5316;49.538;8.352;2023-05-29T10:47:37;3.78;;;2.13;;
10535;SDS011;5316;49.538;8.352;2023-05-29T10:50:04;5.75;;;2.42;;
10535;SDS011;5316;49.538;8.352;2023-05-29T10:52:32;4.28;;;2.60;;
10535;SDS011;5316;49.538;8.352;2023-05-29T10:54:59;5.95;;;4.25;;
10535;SDS011;5316;49.538;8.352;2023-05-29T10:57:29;2.47;;;2.28;;
10535;SDS011;5316;49.538;8.352;2023-05-29T11:00:04;2.40;;;2.20;;
10535;SDS011;5316;49.538;8.352;2023-05-29T11:02:38;2.30;;;2.10;;
10535;SDS011;5316;49.538;8.352;2023-05-29T11:05:22;2.20;;;2.10;;
10535;SDS011;5316;49.538;8.352;2023-05-29T11:07:53;3.30;;;2.15;;
10535;SDS011;5316;49.538;8.352;2023-05-29T11:13:08;3.80;;;2.45;;
10535;SDS011;5316;49.538;8.352;2023-05-29T11:15:38;2.33;;;2.13;;
10535;SDS011;5316;49.538;8.352;2023-05-29T11:18:07;3.53;;;2.65;;
10535;SDS011;5316;49.538;8.352;2023-05-29T11:20:35;3.55;;;2.50;;
10535;SDS011;5316;49.538;8.352;2023-05-29T11:23:03;5.88;;;3.03;;
10535;SDS011;5316;49.538;8.352;2023-05-29T11:25:34;3.72;;;2.10;;
10535;SDS011;5316;49.538;8.352;2023-05-29T11:28:02;4.47;;;2.85;;
10535;SDS011;5316;49.538;8.352;2023-05-29T11:30:40;2.47;;;2.28;;
10535;SDS011;5316;49.538;8.352;2023-05-29T11:33:14;4.82;;;2.55;;
10535;SDS011;5316;49.538;8.352;2023-05-29T11:35:54;3.78;;;2.22;;
10535;SDS011;5316;49.538;8.352;2023-05-29T11:38:23;3.50;;;2.10;;
10535;SDS011;5316;49.538;8.352;2023-05-29T11:40:50;4.60;;;2.20;;
10535;SDS011;5316;49.538;8.352;2023-05-29T11:43:17;3.45;;;2.95;;
10535;SDS011;5316;49.538;8.352;2023-05-29T11:45:44;4.00;;;2.50;;
10535;SDS011;5316;49.538;8.352;2023-05-29T11:48:12;6.07;;;2.63;;
10535;SDS011;5316;49.538;8.352;2023-05-29T11:50:39;4.70;;;2.13;;
10535;SDS011;5316;49.538;8.352;2023-05-29T11:53:06;5.95;;;1.95;;
10535;SDS011;5316;49.538;8.352;2023-05-29T11:55:33;2.78;;;2.35;;
10535;SDS011;5316;49.538;8.352;2023-05-29T11:58:01;4.72;;;4.30;;
10535;SDS011;5316;49.538;8.352;2023-05-29T12:00:32;9.57;;;8.85;;
10535;SDS011;5316;49.538;8.352;2023-05-29T12:03:01;18.08;;;16.65;;
10535;SDS011;5316;49.538;8.352;2023-05-29T12:05:31;24.17;;;21.77;;
10535;SDS011;5316;49.538;8.352;2023-05-29T12:07:59;9.20;;;8.32;;
10535;SDS011;5316;49.538;8.352;2023-05-29T12:10:27;7.35;;;6.38;;
10535;SDS011;5316;49.538;8.352;2023-05-29T12:12:54;2.45;;;2.25;;
10535;SDS011;5316;49.538;8.352;2023-05-29T12:15:22;2.67;;;2.20;;
10535;SDS011;5316;49.538;8.352;2023-05-29T12:17:50;2.83;;;2.40;;
10535;SDS011;5316;49.538;8.352;2023-05-29T12:20:21;3.42;;;2.97;;
10535;SDS011;5316;49.538;8.352;2023-05-29T12:22:53;5.22;;;4.35;;
10535;SDS011;5316;49.538;8.352;2023-05-29T12:25:26;3.53;;;2.70;;
10535;SDS011;5316;49.538;8.352;2023-05-29T12:27:55;3.55;;;3.20;;
10535;SDS011;5316;49.538;8.352;2023-05-29T12:30:23;5.93;;;5.00;;
10535;SDS011;5316;49.538;8.352;2023-05-29T12:32:51;2.58;;;2.05;;
10535;SDS011;5316;49.538;8.352;2023-05-29T12:35:19;2.97;;;2.78;;
10535;SDS011;5316;49.538;8.352;2023-05-29T12:37:46;3.55;;;1.95;;
10535;SDS011;5316;49.538;8.352;2023-05-29T12:40:16;3.45;;;1.73;;
10535;SDS011;5316;49.538;8.352;2023-05-29T12:42:45;2.65;;;2.00;;
10535;SDS011;5316;49.538;8.352;2023-05-29T12:45:12;2.92;;;2.13;;
10535;SDS011;5316;49.538;8.352;2023-05-29T12:47:44;5.38;;;3.00;;
10535;SDS011;5316;49.538;8.352;2023-05-29T12:50:19;5.50;;;2.10;;
10535;SDS011;5316;49.538;8.352;2023-05-29T12:52:52;3.95;;;2.45;;
10535;SDS011;5316;49.538;8.352;2023-05-29T12:55:24;1.85;;;1.75;;
10535;SDS011;5316;49.538;8.352;2023-05-29T12:57:52;3.15;;;2.40;;
10535;SDS011;5316;49.538;8.352;2023-05-29T13:00:20;2.25;;;2.15;;
10535;SDS011;5316;49.538;8.352;2023-05-29T13:02:48;2.47;;;2.25;;
10535;SDS011;5316;49.538;8.352;2023-05-29T13:05:16;2.03;;;1.77;;
10535;SDS011;5316;49.538;8.352;2023-05-29T13:07:46;3.58;;;2.03;;
10535;SDS011;5316;49.538;8.352;2023-05-29T13:10:13;3.05;;;1.70;;
10535;SDS011;5316;49.538;8.352;2023-05-29T13:12:42;4.47;;;3.05;;
10535;SDS011;5316;49.538;8.352;2023-05-29T13:15:09;2.50;;;2.20;;
10535;SDS011;5316;49.538;8.352;2023-05-29T13:17:37;2.05;;;1.85;;
10535;SDS011;5316;49.538;8.352;2023-05-29T13:20:06;2.25;;;1.88;;
10535;SDS011;5316;49.538;8.352;2023-05-29T13:22:35;3.03;;;2.38;;
10535;SDS011;5316;49.538;8.352;2023-05-29T13:25:02;2.60;;;2.17;;
10535;SDS011;5316;49.538;8.352;2023-05-29T13:27:31;3.00;;;2.00;;
10535;SDS011;5316;49.538;8.352;2023-05-29T13:30:00;2.30;;;2.10;;
10535;SDS011;5316;49.538;8.352;2023-05-29T13:32:27;2.28;;;2.08;;
10535;SDS011;5316;49.538;8.352;2023-05-29T13:34:54;1.80;;;1.70;;
10535;SDS011;5316;49.538;8.352;2023-05-29T13:37:22;2.63;;;2.03;;
10535;SDS011;5316;49.538;8.352;2023-05-29T13:39:49;2.10;;;1.95;;
10535;SDS011;5316;49.538;8.352;2023-05-29T13:42:17;1.90;;;1.80;;
10535;SDS011;5316;49.538;8.352;2023-05-29T13:44:44;1.90;;;1.70;;
10535;SDS011;5316;49.538;8.352;2023-05-29T13:47:13;3.53;;;2.00;;
10535;SDS011;5316;49.538;8.352;2023-05-29T13:49:39;2.55;;;1.90;;
10535;SDS011;5316;49.538;8.352;2023-05-29T13:52:07;3.38;;;1.80;;
10535;SDS011;5316;49.538;8.352;2023-05-29T13:54:35;2.67;;;2.22;;
10535;SDS011;5316;49.538;8.352;2023-05-29T13:57:02;1.92;;;1.80;;
10535;SDS011;5316;49.538;8.352;2023-05-29T13:59:29;2.55;;;2.22;;
10535;SDS011;5316;49.538;8.352;2023-05-29T14:01:56;1.98;;;1.88;;
10535;SDS011;5316;49.538;8.352;2023-05-29T14:04:24;2.67;;;2.08;;
10535;SDS011;5316;49.538;8.352;2023-05-29T14:06:52;5.00;;;2.03;;
10535;SDS011;5316;49.538;8.352;2023-05-29T14:09:19;2.85;;;1.90;;
10535;SDS011;5316;49.538;8.352;2023-05-29T14:11:52;2.70;;;1.85;;
10535;SDS011;5316;49.538;8.352;2023-05-29T14:14:19;2.38;;;1.83;;
10535;SDS011;5316;49.538;8.352;2023-05-29T14:16:46;2.72;;;1.77;;
10535;SDS011;5316;49.538;8.352;2023-05-29T14:19:13;2.20;;;2.00;;
10535;SDS011;5316;49.538;8.352;2023-05-29T14:21:41;2.17;;;1.90;;
10535;SDS011;5316;49.538;8.352;2023-05-29T14:24:09;1.90;;;1.80;;
10535;SDS011;5316;49.538;8.352;2023-05-29T14:26:36;1.70;;;1.60;;
10535;SDS011;5316;49.538;8.352;2023-05-29T14:29:03;3.13;;;1.67;;
10535;SDS011;5316;49.538;8.352;2023-05-29T14:31:31;2.17;;;1.83;;
10535;SDS011;5316;49.538;8.352;2023-05-29T14:33:58;2.97;;;2.10;;
10535;SDS011;5316;49.538;8.352;2023-05-29T14:36:25;4.68;;;4.10;;
10535;SDS011;5316;49.538;8.352;2023-05-29T14:38:53;7.28;;;6.13;;
10535;SDS011;5316;49.538;8.352;2023-05-29T14:41:20;2.75;;;2.35;;
10535;SDS011;5316;49.538;8.352;2023-05-29T14:43:47;4.10;;;2.00;;
10535;SDS011;5316;49.538;8.352;2023-05-29T14:46:15;2.25;;;1.70;;
10535;SDS011;5316;49.538;8.352;2023-05-29T14:48:42;3.58;;;2.22;;
10535;SDS011;5316;49.538;8.352;2023-05-29T14:51:09;2.38;;;1.85;;
10535;SDS011;5316;49.538;8.352;2023-05-29T14:53:36;2.40;;;2.20;;
10535;SDS011;5316;49.538;8.352;2023-05-29T14:56:05;2.38;;;2.13;;
10535;SDS011;5316;49.538;8.352;2023-05-29T14:58:32;2.00;;;1.90;;
10535;SDS011;5316;49.538;8.352;2023-05-29T15:00:58;2.75;;;1.80;;
10535;SDS011;5316;49.538;8.352;2023-05-29T15:03:25;2.20;;;2.00;;
10535;SDS011;5316;49.538;8.352;2023-05-29T15:05:54;2.92;;;2.15;;
10535;SDS011;5316;49.538;8.352;2023-05-29T15:08:22;2.70;;;2.50;;
10535;SDS011;5316;49.538;8.352;2023-05-29T15:10:49;3.85;;;2.88;;
10535;SDS011;5316;49.538;8.352;2023-05-29T15:13:17;2.40;;;2.30;;
10535;SDS011;5316;49.538;8.352;2023-05-29T15:15:44;2.58;;;2.10;;
10535;SDS011;5316;49.538;8.352;2023-05-29T15:18:10;3.28;;;1.65;;
10535;SDS011;5316;49.538;8.352;2023-05-29T15:20:37;2.20;;;2.10;;
10535;SDS011;5316;49.538;8.352;2023-05-29T15:23:04;2.20;;;1.58;;
10535;SDS011;5316;49.538;8.352;2023-05-29T15:25:31;2.20;;;2.00;;
10535;SDS011;5316;49.538;8.352;2023-05-29T15:27:57;2.50;;;2.03;;
10535;SDS011;5316;49.538;8.352;2023-05-29T15:30:26;2.25;;;2.15;;
10535;SDS011;5316;49.538;8.352;2023-05-29T15:32:53;2.45;;;2.33;;
10535;SDS011;5316;49.538;8.352;2023-05-29T15:35:20;3.30;;;2.30;;
10535;SDS011;5316;49.538;8.352;2023-05-29T17:19:58;3.13;;;2.67;;
10535;SDS011;5316;49.538;8.352;2023-05-29T20:07:19;6.70;;;2.55;;
10535;SDS011;5316;49.538;8.352;2023-05-29T20:09:46;3.65;;;2.70;;
10535;SDS011;5316;49.538;8.352;2023-05-29T20:12:13;5.60;;;2.60;;
10535;SDS011;5316;49.538;8.352;2023-05-29T20:14:40;5.38;;;2.70;;
10535;SDS011;5316;49.538;8.352;2023-05-29T20:17:07;4.22;;;2.30;;
10535;SDS011;5316;49.538;8.352;2023-05-29T20:19:35;9.05;;;5.65;;
10535;SDS011;5316;49.538;8.352;2023-05-29T20:22:03;4.22;;;2.70;;
10535;SDS011;5316;49.538;8.352;2023-05-29T20:24:34;4.03;;;2.25;;
10535;SDS011;5316;49.538;8.352;2023-05-29T20:27:01;4.63;;;2.25;;
10535;SDS011;5316;49.538;8.352;2023-05-29T20:29:28;7.25;;;2.55;;
10535;SDS011;5316;49.538;8.352;2023-05-29T20:31:56;4.78;;;2.50;;
10535;SDS011;5316;49.538;8.352;2023-05-29T20:34:23;8.82;;;2.40;;
10535;SDS011;5316;49.538;8.352;2023-05-29T20:36:50;3.40;;;2.25;;
10535;SDS011;5316;49.538;8.352;2023-05-29T20:39:19;5.45;;;2.33;;
10535;SDS011;5316;49.538;8.352;2023-05-29T20:41:48;7.28;;;4.15;;
10535;SDS011;5316;49.538;8.352;2023-05-29T20:44:15;7.60;;;2.95;;
10535;SDS011;5316;49.538;8.352;2023-05-29T20:46:42;5.30;;;2.50;;
10535;SDS011;5316;49.538;8.352;2023-05-29T20:49:09;5.82;;;2.50;;
10535;SDS011;5316;49.538;8.352;2023-05-29T20:51:36;6.25;;;2.60;;
10535;SDS011;5316;49.538;8.352;2023-05-29T20:54:04;4.20;;;2.47;;
10535;SDS011;5316;49.538;8.352;2023-05-29T20:56:31;5.90;;;2.47;;
10535;SDS011;5316;49.538;8.352;2023-05-29T20:58:59;4.43;;;2.30;;
10535;SDS011;5316;49.538;8.352;2023-05-29T21:01:26;5.22;;;2.63;;
10535;SDS011;5316;49.538;8.352;2023-05-29T21:03:53;5.93;;;2.40;;
10535;SDS011;5316;49.538;8.352;2023-05-29T21:06:21;4.53;;;2.03;;
10535;SDS011;5316;49.538;8.352;2023-05-29T21:08:48;5.47;;;2.53;;
10535;SDS011;5316;49.538;8.352;2023-05-29T21:11:15;4.45;;;2.20;;
10535;SDS011;5316;49.538;8.352;2023-05-29T21:13:42;5.43;;;2.67;;
10535;SDS011;5316;49.538;8.352;2023-05-29T21:16:10;4.18;;;2.40;;
10535;SDS011;5316;49.538;8.352;2023-05-29T21:18:37;3.97;;;2.13;;
10535;SDS011;5316;49.538;8.352;2023-05-29T21:21:04;4.65;;;2.15;;
10535;SDS011;5316;49.538;8.352;2023-05-29T21:23:31;4.45;;;2.38;;
10535;SDS011;5316;49.538;8.352;2023-05-29T21:25:58;5.75;;;2.53;;
10535;SDS011;5316;49.538;8.352;2023-05-29T21:28:25;3.75;;;2.33;;
10535;SDS011;5316;49.538;8.352;2023-05-29T21:30:52;7.75;;;2.67;;
10535;SDS011;5316;49.538;8.352;2023-05-29T21:33:20;3.85;;;1.90;;
10535;SDS011;5316;49.538;8.352;2023-05-29T21:35:50;4.22;;;2.05;;
10535;SDS011;5316;49.538;8.352;2023-05-29T21:38:20;4.85;;;2.45;;
10535;SDS011;5316;49.538;8.352;2023-05-29T21:40:50;5.22;;;2.20;;
10535;SDS011;5316;49.538;8.352;2023-05-29T21:43:17;3.92;;;2.63;;
10535;SDS011;5316;49.538;8.352;2023-05-29T21:45:45;9.45;;;2.67;;
10535;SDS011;5316;49.538;8.352;2023-05-29T21:48:12;5.05;;;2.25;;
10535;SDS011;5316;49.538;8.352;2023-05-29T21:50:42;7.90;;;3.03;;
10535;SDS011;5316;49.538;8.352;2023-05-29T21:53:09;4.85;;;2.40;;
10535;SDS011;5316;49.538;8.352;2023-05-29T21:55:36;5.28;;;2.55;;
10535;SDS011;5316;49.538;8.352;2023-05-29T21:58:04;4.82;;;2.40;;
10535;SDS011;5316;49.538;8.352;2023-05-29T22:00:31;6.07;;;4.40;;
10535;SDS011;5316;49.538;8.352;2023-05-29T22:02:59;4.28;;;2.25;;
10535;SDS011;5316;49.538;8.352;2023-05-29T22:05:26;6.40;;;2.60;;
10535;SDS011;5316;49.538;8.352;2023-05-29T22:07:55;5.00;;;2.25;;
10535;SDS011;5316;49.538;8.352;2023-05-29T22:10:22;3.65;;;2.00;;
10535;SDS011;5316;49.538;8.352;2023-05-29T22:12:51;4.03;;;1.80;;
10535;SDS011;5316;49.538;8.352;2023-05-29T22:15:19;2.92;;;2.13;;
10535;SDS011;5316;49.538;8.352;2023-05-29T22:17:47;4.45;;;2.10;;
10535;SDS011;5316;49.538;8.352;2023-05-29T22:20:14;5.90;;;2.53;;
10535;SDS011;5316;49.538;8.352;2023-05-29T22:22:41;3.03;;;1.98;;
10535;SDS011;5316;49.538;8.352;2023-05-29T22:25:11;3.63;;;2.40;;
10535;SDS011;5316;49.538;8.352;2023-05-29T22:27:38;3.65;;;2.47;;
10535;SDS011;5316;49.538;8.352;2023-05-29T22:30:06;5.68;;;2.28;;
10535;SDS011;5316;49.538;8.352;2023-05-29T22:32:35;6.77;;;2.40;;
10535;SDS011;5316;49.538;8.352;2023-05-29T22:35:03;6.00;;;2.42;;
10535;SDS011;5316;49.538;8.352;2023-05-29T22:37:31;5.80;;;2.40;;
10535;SDS011;5316;49.538;8.352;2023-05-29T22:39:58;4.30;;;2.10;;
10535;SDS011;5316;49.538;8.352;2023-05-29T22:42:27;3.80;;;2.28;;
10535;SDS011;5316;49.538;8.352;2023-05-29T22:44:53;3.35;;;2.28;;
10535;SDS011;5316;49.538;8.352;2023-05-29T22:47:20;6.53;;;2.00;;
10535;SDS011;5316;49.538;8.352;2023-05-29T22:49:48;7.38;;;2.70;;
10535;SDS011;5316;49.538;8.352;2023-05-29T22:52:15;6.03;;;2.50;;
10535;SDS011;5316;49.538;8.352;2023-05-29T22:54:43;8.27;;;2.10;;
10535;SDS011;5316;49.538;8.352;2023-05-29T22:57:11;3.13;;;2.10;;